Time;durP1;ratioP1;P1;durP2;ratioP2;P2;SDS_P1;SDS_P2;PMS_P1;PMS_P2;Temp;Humidity;BMP_temperature;BMP_pressure;BME280_temperature;BME280_humidity;BME280_pressure;Samples;Min_cycle;Max_cycle;Signal;HPM_P1;HPM_P2
2024/02/10 00:00:26;;;;;;;26.70;5.97;;;11.70;99.90;;;;;;6246673;22;20001;-73
2024/02/10 00:02:54;;;;;;;20.95;6.80;;;11.70;99.90;;;;;;6246677;22;20004;-70
2024/02/10 00:05:22;;;;;;;22.52;6.35;;;11.70;99.90;;;;;;6246536;22;20023;-70
2024/02/10 00:07:55;;;;;;;21.00;6.55;;;11.70;99.90;;;;;;6246596;22;20359;-73
2024/02/10 00:10:25;;;;;;;29.35;6.63;;;11.70;99.90;;;;;;6247123;22;20028;-71
2024/02/10 00:13:00;;;;;;;26.15;6.50;;;11.70;99.90;;;;;;6246380;22;20012;-73
2024/02/10 00:15:28;;;;;;;26.85;6.60;;;11.70;99.90;;;;;;6246653;22;20004;-75
2024/02/10 00:17:54;;;;;;;24.27;6.32;;;11.70;99.90;;;;;;6246454;23;20024;-74
2024/02/10 00:20:20;;;;;;;23.05;5.57;;;11.70;99.90;;;;;;6246546;22;20003;-75
2024/02/10 00:22:48;;;;;;;19.75;6.28;;;11.70;99.90;;;;;;6246262;22;20000;-74
2024/02/10 00:25:18;;;;;;;19.92;5.50;;;11.70;99.90;;;;;;6246427;22;20008;-75
2024/02/10 00:27:46;;;;;;;19.67;5.75;;;11.70;99.90;;;;;;6245909;22;20000;-75
2024/02/10 00:30:16;;;;;;;17.38;5.05;;;11.70;99.90;;;;;;6246352;22;20016;-74
2024/02/10 00:32:43;;;;;;;17.58;5.28;;;11.80;99.90;;;;;;6244710;23;20019;-75
2024/02/10 00:35:09;;;;;;;22.85;4.97;;;11.80;99.90;;;;;;6247073;22;20418;-74
2024/02/10 00:37:35;;;;;;;16.05;5.00;;;11.80;99.90;;;;;;6247186;22;20000;-73
2024/02/10 00:40:03;;;;;;;23.38;5.70;;;11.80;99.90;;;;;;6246825;23;20008;-73
2024/02/10 00:42:29;;;;;;;19.73;5.80;;;11.80;99.90;;;;;;6247508;22;20331;-73
2024/02/10 00:44:59;;;;;;;20.17;5.47;;;11.70;99.90;;;;;;6247427;22;20030;-73
2024/02/10 00:48:07;;;;;;;21.58;5.22;;;11.70;99.90;;;;;;6246714;22;20015;-73
2024/02/10 00:54:09;;;;;;;16.15;4.75;;;11.80;99.90;;;;;;6095029;23;20134;-73
2024/02/10 01:00:21;;;;;;;22.17;5.32;;;11.70;99.90;;;;;;6124428;23;20056;-73
2024/02/10 01:06:26;;;;;;;17.88;4.93;;;11.70;99.90;;;;;;6066235;23;20143;-73
2024/02/10 01:12:56;;;;;;;16.83;5.35;;;11.70;99.90;;;;;;5980751;24;20027;-73
2024/02/10 01:15:24;;;;;;;13.32;5.38;;;11.70;99.90;;;;;;6029878;23;20374;-73
2024/02/10 01:17:50;;;;;;;20.65;5.35;;;11.70;99.90;;;;;;6212004;22;20004;-73
2024/02/10 01:20:17;;;;;;;15.43;4.95;;;11.70;99.90;;;;;;6246020;23;20440;-73
2024/02/10 01:22:44;;;;;;;23.33;5.55;;;11.70;99.90;;;;;;6245962;22;20331;-73
2024/02/10 01:25:10;;;;;;;13.65;5.22;;;11.70;99.90;;;;;;6246316;22;20014;-73
2024/02/10 01:27:36;;;;;;;13.10;5.28;;;11.70;99.90;;;;;;6245484;23;20353;-73
2024/02/10 01:30:03;;;;;;;19.02;5.80;;;11.70;99.90;;;;;;6245724;22;20007;-73
2024/02/10 01:32:29;;;;;;;18.67;5.28;;;11.70;99.90;;;;;;6246141;22;20020;-73
2024/02/10 01:34:55;;;;;;;18.58;6.13;;;11.70;99.90;;;;;;6245918;22;20035;-73
2024/02/10 01:37:22;;;;;;;17.30;5.80;;;11.70;99.90;;;;;;6245586;23;19996;-73
2024/02/10 01:39:53;;;;;;;18.42;6.68;;;11.70;99.90;;;;;;6245853;22;19996;-73
2024/02/10 01:42:27;;;;;;;17.23;5.75;;;11.60;99.90;;;;;;6245586;22;20083;-73
2024/02/10 01:44:53;;;;;;;15.43;6.13;;;11.60;99.90;;;;;;6245593;23;20020;-73
2024/02/10 01:47:20;;;;;;;16.23;5.95;;;11.60;99.90;;;;;;6244117;23;20058;-73
2024/02/10 01:49:46;;;;;;;13.82;6.28;;;11.60;99.90;;;;;;6244450;23;20393;-73
2024/02/10 01:52:12;;;;;;;13.27;6.00;;;11.50;99.90;;;;;;6245251;22;20008;-73
2024/02/10 01:54:39;;;;;;;20.55;6.60;;;11.60;99.90;;;;;;6245308;22;20462;-73
2024/02/10 01:57:06;;;;;;;16.75;6.75;;;11.60;99.90;;;;;;6245750;22;20083;-73
2024/02/10 01:59:35;;;;;;;15.80;6.35;;;11.50;99.90;;;;;;6242294;22;20007;-73
2024/02/10 02:02:03;;;;;;;15.88;6.70;;;11.60;99.90;;;;;;6242429;22;20043;-73
2024/02/10 02:04:36;;;;;;;14.98;6.60;;;11.60;99.90;;;;;;6243384;22;20012;-73
2024/02/10 02:07:10;;;;;;;21.30;6.97;;;11.60;99.90;;;;;;6245167;22;20004;-73
2024/02/10 02:09:37;;;;;;;17.13;6.32;;;11.50;99.90;;;;;;6245585;22;20456;-73
2024/02/10 02:12:09;;;;;;;20.40;6.47;;;11.50;99.90;;;;;;6245381;22;20019;-73
2024/02/10 02:14:36;;;;;;;22.50;6.65;;;11.60;99.90;;;;;;6243685;23;20027;-73
2024/02/10 02:17:05;;;;;;;17.52;6.32;;;11.50;99.90;;;;;;6246084;22;20000;-72
2024/02/10 02:19:33;;;;;;;20.85;7.22;;;11.50;99.90;;;;;;6246286;22;20355;-73
2024/02/10 02:22:02;;;;;;;17.10;5.78;;;11.50;99.90;;;;;;6245684;22;20011;-73
2024/02/10 02:24:53;;;;;;;13.85;6.10;;;11.50;99.90;;;;;;6245532;22;20482;-73
2024/02/10 02:27:38;;;;;;;15.13;5.90;;;11.50;99.90;;;;;;6245352;22;20024;-73
2024/02/10 02:44:21;;;;;;;18.17;6.45;;;11.50;99.90;;;;;;6245846;23;20323;-73
2024/02/10 02:50:14;;;;;;;15.88;6.70;;;11.50;99.90;;;;;;6245413;23;20050;-73
2024/02/10 02:52:41;;;;;;;16.08;6.43;;;11.50;99.90;;;;;;6245659;22;20372;-73
2024/02/10 02:55:11;;;;;;;14.68;5.85;;;11.40;99.90;;;;;;6245328;22;20022;-73
2024/02/10 02:57:39;;;;;;;16.23;7.03;;;11.40;99.90;;;;;;6243692;23;20337;-73
2024/02/10 03:00:06;;;;;;;26.75;6.68;;;11.40;99.90;;;;;;6245592;22;20054;-73
2024/02/10 03:02:32;;;;;;;16.88;6.40;;;11.40;99.90;;;;;;6243940;23;20004;-73
2024/02/10 03:04:58;;;;;;;19.73;7.05;;;11.40;99.90;;;;;;6245047;22;20004;-73
2024/02/10 03:07:27;;;;;;;15.48;6.38;;;11.40;99.90;;;;;;6244808;22;20000;-73
2024/02/10 03:09:53;;;;;;;17.60;6.75;;;11.40;99.90;;;;;;6245511;22;20331;-73
2024/02/10 03:12:19;;;;;;;17.95;6.47;;;11.40;99.90;;;;;;6245076;22;20008;-73
2024/02/10 03:14:45;;;;;;;16.17;6.63;;;11.40;99.90;;;;;;6245317;23;20003;-73
2024/02/10 03:17:14;;;;;;;23.90;6.45;;;11.40;99.90;;;;;;6243604;23;20031;-73
2024/02/10 03:19:45;;;;;;;17.05;6.72;;;11.40;99.90;;;;;;6244954;22;20007;-73
2024/02/10 03:22:13;;;;;;;18.42;6.95;;;11.40;99.90;;;;;;6244960;22;20058;-73
2024/02/10 03:24:39;;;;;;;16.45;6.50;;;11.40;99.90;;;;;;6244994;22;20321;-73
2024/02/10 03:27:05;;;;;;;21.35;7.47;;;11.40;99.90;;;;;;6244874;23;20083;-73
2024/02/10 03:29:31;;;;;;;16.95;6.70;;;11.40;99.90;;;;;;6245343;22;20000;-73
2024/02/10 03:31:57;;;;;;;14.75;6.75;;;11.40;99.90;;;;;;6245766;22;20440;-75
2024/02/10 03:34:22;;;;;;;20.48;6.40;;;11.40;99.90;;;;;;6246170;23;20031;-75
2024/02/10 03:36:48;;;;;;;13.63;5.90;;;11.40;99.90;;;;;;6247136;22;20000;-75
2024/02/10 03:39:15;;;;;;;15.75;6.25;;;11.40;99.90;;;;;;6247011;22;20030;-75
2024/02/10 03:41:41;;;;;;;14.90;6.63;;;11.40;99.90;;;;;;6246645;22;20492;-75
2024/02/10 03:44:06;;;;;;;24.13;6.63;;;11.40;99.90;;;;;;6245371;23;20004;-74
2024/02/10 03:46:32;;;;;;;18.27;6.72;;;11.40;99.90;;;;;;6247035;22;20004;-75
2024/02/10 03:49:01;;;;;;;17.17;6.43;;;11.40;99.90;;;;;;6246607;22;20361;-74
2024/02/10 03:51:28;;;;;;;18.38;6.75;;;11.40;99.90;;;;;;6246906;22;20012;-73
2024/02/10 03:53:55;;;;;;;20.02;6.30;;;11.40;99.90;;;;;;6247019;22;20370;-73
2024/02/10 03:56:23;;;;;;;20.70;7.20;;;11.30;99.90;;;;;;6247335;22;20011;-73
2024/02/10 03:58:50;;;;;;;17.70;6.85;;;11.40;99.90;;;;;;6247670;22;20004;-73
2024/02/10 04:01:16;;;;;;;15.68;5.90;;;11.30;99.90;;;;;;6247599;22;20036;-73
2024/02/10 04:07:56;;;;;;;11.77;6.20;;;11.40;99.90;;;;;;6247134;23;20381;-73
2024/02/10 04:17:59;;;;;;;15.63;8.38;;;11.30;99.90;;;;;;6095542;23;20012;-72
2024/02/10 04:23:51;;;;;;;14.07;5.97;;;11.30;99.90;;;;;;5993996;23;20046;-73
2024/02/10 04:27:06;;;;;;;19.55;5.90;;;11.30;99.90;;;;;;6095021;23;20009;-73
2024/02/10 04:29:35;;;;;;;16.30;5.75;;;11.30;99.90;;;;;;6019903;23;20035;-73
2024/02/10 04:32:07;;;;;;;11.63;6.10;;;11.30;99.90;;;;;;6094883;23;20345;-73
2024/02/10 04:34:33;;;;;;;13.68;5.78;;;11.30;99.90;;;;;;6182632;22;20014;-73
2024/02/10 04:36:59;;;;;;;12.82;5.80;;;11.30;99.90;;;;;;6246581;22;20026;-73
2024/02/10 04:39:26;;;;;;;13.73;5.47;;;11.30;99.90;;;;;;6246503;22;20011;-73
2024/02/10 04:41:53;;;;;;;10.95;5.10;;;11.30;99.90;;;;;;6246738;22;20008;-73
2024/02/10 04:44:19;;;;;;;9.70;4.80;;;11.30;99.90;;;;;;6246101;22;20009;-72
2024/02/10 04:46:44;;;;;;;14.43;6.85;;;11.30;99.90;;;;;;6245822;22;19996;-73
2024/02/10 04:49:12;;;;;;;19.45;7.00;;;11.30;99.90;;;;;;6244899;23;20004;-73
2024/02/10 04:51:40;;;;;;;16.42;7.20;;;11.30;99.90;;;;;;6246528;22;20354;-73
2024/02/10 04:54:07;;;;;;;15.55;6.35;;;11.30;99.90;;;;;;6245865;22;20453;-73
2024/02/10 04:56:33;;;;;;;17.13;6.50;;;11.30;99.90;;;;;;6246098;22;20011;-73
2024/02/10 04:59:00;;;;;;;15.45;6.25;;;11.30;99.90;;;;;;6246216;22;20004;-73
2024/02/10 05:01:32;;;;;;;20.48;6.60;;;11.30;99.90;;;;;;6246557;22;20008;-73
2024/02/10 05:03:58;;;;;;;14.68;6.60;;;11.20;99.90;;;;;;6246150;22;20004;-73
2024/02/10 05:06:28;;;;;;;18.98;7.47;;;11.20;99.90;;;;;;6246262;22;20027;-73
2024/02/10 05:08:54;;;;;;;17.52;6.57;;;11.30;99.90;;;;;;6246263;22;20449;-73
2024/02/10 05:11:21;;;;;;;16.77;7.20;;;11.30;99.90;;;;;;6246112;22;20008;-73
2024/02/10 05:13:47;;;;;;;14.75;7.28;;;11.30;99.90;;;;;;6245845;22;20012;-73
2024/02/10 05:16:17;;;;;;;18.35;7.43;;;11.30;99.90;;;;;;6245952;23;19996;-73
2024/02/10 05:18:43;;;;;;;16.80;7.40;;;11.30;99.90;;;;;;6245820;22;20087;-73
2024/02/10 05:21:16;;;;;;;16.70;7.03;;;11.20;99.90;;;;;;6243976;23;20039;-73
2024/02/10 05:23:45;;;;;;;18.50;6.90;;;11.20;99.90;;;;;;6245964;22;20004;-73
2024/02/10 05:26:12;;;;;;;14.82;7.55;;;11.20;99.90;;;;;;6246006;22;20000;-73
2024/02/10 05:28:38;;;;;;;15.48;6.78;;;11.20;99.90;;;;;;6245859;22;20079;-73
2024/02/10 05:31:04;;;;;;;12.82;7.13;;;11.20;99.90;;;;;;6245669;22;20419;-73
2024/02/10 05:33:30;;;;;;;14.90;7.32;;;11.20;99.90;;;;;;6246527;22;20042;-73
2024/02/10 05:35:56;;;;;;;17.75;7.07;;;11.20;99.90;;;;;;6245372;23;20007;-73
2024/02/10 05:38:21;;;;;;;21.25;7.85;;;11.20;99.90;;;;;;6246067;22;20082;-73
2024/02/10 05:40:48;;;;;;;13.27;7.30;;;11.10;99.90;;;;;;6246269;23;20000;-72
2024/02/10 06:08:21;;;;;;;13.38;8.50;;;11.00;99.90;;;;;;6115564;23;20385;-73
2024/02/10 06:10:50;;;;;;;17.63;8.85;;;11.00;99.90;;;;;;6122039;23;20344;-73
2024/02/10 06:13:16;;;;;;;13.30;7.88;;;11.10;99.90;;;;;;6135746;22;20017;-73
2024/02/10 06:15:42;;;;;;;17.80;7.93;;;11.10;99.90;;;;;;6245073;23;19996;-73
2024/02/10 06:18:08;;;;;;;21.13;7.70;;;11.00;99.90;;;;;;6244856;23;20010;-73
2024/02/10 06:20:34;;;;;;;17.45;8.77;;;11.00;99.90;;;;;;6242954;23;20056;-73
2024/02/10 06:23:01;;;;;;;16.88;7.88;;;11.00;99.90;;;;;;6245026;22;20075;-73
2024/02/10 06:25:27;;;;;;;21.73;9.50;;;11.00;99.90;;;;;;6243693;23;20327;-73
2024/02/10 06:27:57;;;;;;;19.60;8.70;;;11.10;99.90;;;;;;6243401;23;20342;-70
2024/02/10 06:30:26;;;;;;;18.13;8.30;;;11.00;99.90;;;;;;6244791;22;20028;-73
2024/02/10 06:32:53;;;;;;;25.05;8.40;;;11.00;99.90;;;;;;6244278;22;20922;-73
2024/02/10 06:35:19;;;;;;;19.38;8.27;;;11.00;99.90;;;;;;6243314;23;20034;-73
2024/02/10 06:37:47;;;;;;;21.40;7.55;;;11.00;99.90;;;;;;6243303;23;20012;-73
2024/02/10 06:40:14;;;;;;;22.00;8.05;;;11.00;99.90;;;;;;6245527;22;20083;-73
2024/02/10 06:42:48;;;;;;;13.88;7.82;;;11.00;99.90;;;;;;6245391;22;20004;-72
2024/02/10 06:45:15;;;;;;;15.90;7.20;;;11.00;99.90;;;;;;6245179;22;20415;-73
2024/02/10 06:47:45;;;;;;;15.13;7.38;;;11.00;99.90;;;;;;6245174;22;20434;-71
2024/02/10 06:50:13;;;;;;;23.70;7.82;;;11.00;99.90;;;;;;6244378;22;20319;-75
2024/02/10 06:52:41;;;;;;;18.80;7.18;;;11.00;99.90;;;;;;6245198;22;20020;-75
2024/02/10 06:55:07;;;;;;;21.23;6.38;;;11.00;99.90;;;;;;6244881;22;19996;-75
2024/02/10 06:57:34;;;;;;;15.48;6.90;;;11.00;99.90;;;;;;6244433;22;20373;-75
2024/02/10 07:00:14;;;;;;;25.67;8.30;;;11.00;99.90;;;;;;6244511;22;19996;-75
2024/02/10 07:02:46;;;;;;;14.18;7.35;;;11.00;99.90;;;;;;6244399;22;20046;-74
2024/02/10 07:05:17;;;;;;;17.35;8.50;;;11.00;99.90;;;;;;6243961;23;20000;-74
2024/02/10 07:07:43;;;;;;;21.27;8.65;;;11.10;99.90;;;;;;6244330;22;20000;-74
2024/02/10 07:10:20;;;;;;;21.55;8.68;;;11.10;99.90;;;;;;6246049;22;20334;-73
2024/02/10 07:12:47;;;;;;;19.92;8.27;;;11.10;99.90;;;;;;6247429;22;20026;-74
2024/02/10 07:15:17;;;;;;;17.98;8.40;;;11.10;99.90;;;;;;6247597;22;20331;-73
2024/02/10 07:18:07;;;;;;;21.98;8.15;;;11.10;99.90;;;;;;6247167;22;20015;-73
2024/02/10 07:20:34;;;;;;;20.60;7.47;;;11.10;99.90;;;;;;6246758;22;20023;-73
2024/02/10 07:27:07;;;;;;;;;;;;;;;;;;;;;
2024/02/10 07:30:13;;;;;;;13.95;7.93;;;11.10;99.90;;;;;;6133949;23;20092;-73
2024/02/10 07:37:11;;;;;;;;;;;;;;;;;;;;;
2024/02/10 07:39:52;;;;;;;23.92;8.80;;;11.20;99.90;;;;;;6067070;23;20066;-73
2024/02/10 07:45:08;;;;;;;22.08;8.52;;;11.30;99.90;;;;;;6093524;23;20054;-73
2024/02/10 07:47:47;;;;;;;20.70;7.45;;;11.30;99.90;;;;;;6168157;23;20012;-74
2024/02/10 07:50:17;;;;;;;14.82;7.93;;;11.30;99.90;;;;;;6203023;22;20008;-74
2024/02/10 07:52:47;;;;;;;21.60;9.63;;;11.30;99.90;;;;;;6244136;23;20024;-71
2024/02/10 07:55:15;;;;;;;15.18;8.20;;;11.20;99.90;;;;;;6244316;22;20004;-74
2024/02/10 07:57:41;;;;;;;20.90;7.80;;;11.30;99.90;;;;;;6244139;22;20373;-73
2024/02/10 08:00:09;;;;;;;15.02;7.88;;;11.30;99.90;;;;;;6244027;23;19996;-73
2024/02/10 08:02:35;;;;;;;19.00;9.10;;;11.30;99.90;;;;;;6243989;22;20595;-73
2024/02/10 08:05:04;;;;;;;22.60;9.45;;;11.30;99.90;;;;;;6243622;22;20326;-74
2024/02/10 08:07:30;;;;;;;20.30;7.72;;;11.30;99.90;;;;;;6244472;22;20000;-73
2024/02/10 08:09:59;;;;;;;22.55;9.48;;;11.30;99.90;;;;;;6245703;22;20008;-73
2024/02/10 08:12:29;;;;;;;23.55;8.90;;;11.30;99.90;;;;;;6246257;22;20012;-74
2024/02/10 08:14:56;;;;;;;21.48;8.60;;;11.30;99.90;;;;;;6246319;22;20441;-73
2024/02/10 08:17:26;;;;;;;20.75;8.60;;;11.40;99.90;;;;;;6246289;22;20442;-74
2024/02/10 08:19:56;;;;;;;18.48;8.88;;;11.40;99.90;;;;;;6246264;22;20458;-74
2024/02/10 08:22:23;;;;;;;22.80;7.90;;;11.40;99.90;;;;;;6246061;22;20004;-74
2024/02/10 08:24:51;;;;;;;19.80;8.15;;;11.40;99.90;;;;;;6246430;22;20092;-74
2024/02/10 08:27:18;;;;;;;21.63;8.50;;;11.40;99.90;;;;;;6245590;22;20004;-73
2024/02/10 08:29:45;;;;;;;18.10;8.50;;;11.40;99.90;;;;;;6246322;22;20245;-72
2024/02/10 08:32:13;;;;;;;19.90;8.60;;;11.40;99.90;;;;;;6246058;22;20008;-72
2024/02/10 08:34:43;;;;;;;19.77;8.90;;;11.40;99.90;;;;;;6246738;22;19999;-73
2024/02/10 08:37:12;;;;;;;23.17;10.05;;;11.40;99.90;;;;;;6246095;22;20057;-72
2024/02/10 08:39:38;;;;;;;20.95;9.65;;;11.40;99.90;;;;;;6246213;22;20119;-73
2024/02/10 08:42:07;;;;;;;26.33;10.60;;;11.40;99.90;;;;;;6246098;22;20065;-73
2024/02/10 08:44:33;;;;;;;19.35;9.85;;;11.40;99.90;;;;;;6246103;22;20015;-73
2024/02/10 08:47:03;;;;;;;21.80;10.93;;;11.40;99.90;;;;;;6246838;22;20004;-73
2024/02/10 08:49:30;;;;;;;30.00;10.70;;;11.40;99.90;;;;;;6263834;22;20023;-71
2024/02/10 08:51:56;;;;;;;25.13;9.75;;;11.40;99.90;;;;;;6276137;22;20023;-73
2024/02/10 08:54:22;;;;;;;21.98;9.18;;;11.50;99.90;;;;;;6277064;22;20071;-73
2024/02/10 08:56:48;;;;;;;24.42;8.90;;;11.50;99.90;;;;;;6276870;22;20027;-73
2024/02/10 08:59:14;;;;;;;22.92;8.40;;;11.50;99.90;;;;;;6276406;22;20034;-73
2024/02/10 09:01:42;;;;;;;30.38;9.40;;;11.50;99.90;;;;;;6276156;22;20049;-73
2024/02/10 09:04:11;;;;;;;25.55;9.38;;;11.50;99.90;;;;;;6275983;22;20497;-73
2024/02/10 09:06:37;;;;;;;19.83;8.70;;;11.50;99.90;;;;;;6275691;22;20023;-73
2024/02/10 09:09:04;;;;;;;24.20;7.95;;;11.50;99.90;;;;;;6276757;22;20000;-74
2024/02/10 09:11:39;;;;;;;24.92;8.30;;;11.50;99.90;;;;;;6250005;22;20066;-74
2024/02/10 09:14:07;;;;;;;21.13;6.90;;;11.50;99.90;;;;;;6276411;22;20004;-73
2024/02/10 09:40:26;;;;;;;17.58;6.85;;;11.50;99.90;;;;;;5979988;23;20144;-73
2024/02/10 09:43:00;;;;;;;20.02;8.15;;;11.50;99.90;;;;;;5957075;23;20374;-73
2024/02/10 09:45:28;;;;;;;19.38;8.48;;;11.50;99.90;;;;;;6194693;22;20007;-73
2024/02/10 09:47:57;;;;;;;24.05;9.50;;;11.50;99.90;;;;;;6248809;22;20368;-70
2024/02/10 09:50:24;;;;;;;26.58;9.50;;;11.50;99.90;;;;;;6275827;22;20432;-73
2024/02/10 09:52:49;;;;;;;20.13;9.75;;;11.50;99.90;;;;;;6276013;22;20329;-73
2024/02/10 09:55:15;;;;;;;24.27;9.52;;;11.50;99.90;;;;;;6275186;22;20090;-73
2024/02/10 09:57:46;;;;;;;23.30;10.52;;;11.50;99.90;;;;;;6275825;22;20189;-73
2024/02/10 10:00:17;;;;;;;25.35;11.52;;;11.50;99.90;;;;;;6275457;22;20374;-72
2024/02/10 10:02:49;;;;;;;21.33;10.02;;;11.50;99.90;;;;;;6274617;22;20291;-73
2024/02/10 10:05:19;;;;;;;25.02;11.50;;;11.60;99.90;;;;;;6274923;22;20007;-73
2024/02/10 10:07:54;;;;;;;22.33;9.82;;;11.60;99.90;;;;;;6275429;22;20075;-72
2024/02/10 10:10:20;;;;;;;23.85;11.40;;;11.60;99.90;;;;;;6274039;22;20004;-74
2024/02/10 10:12:46;;;;;;;22.17;10.02;;;11.60;99.90;;;;;;6275039;22;20077;-73
2024/02/10 10:15:12;;;;;;;23.88;12.18;;;11.60;99.90;;;;;;6247731;22;20094;-73
2024/02/10 10:17:38;;;;;;;25.55;12.95;;;11.60;99.90;;;;;;6275299;22;20429;-73
2024/02/10 10:20:05;;;;;;;25.30;15.00;;;11.60;99.90;;;;;;6275348;22;20000;-72
2024/02/10 10:22:35;;;;;;;27.40;12.57;;;11.70;99.90;;;;;;6275031;22;20014;-72
2024/02/10 10:25:02;;;;;;;25.40;12.48;;;11.70;99.90;;;;;;6274731;22;20003;-72
2024/02/10 10:27:32;;;;;;;22.45;10.75;;;11.60;99.90;;;;;;6275152;22;20386;-72
2024/02/10 10:29:58;;;;;;;22.08;10.38;;;11.70;99.90;;;;;;6275663;22;20032;-72
2024/02/10 10:32:28;;;;;;;25.35;10.50;;;11.70;99.90;;;;;;6275905;22;20099;-72
2024/02/10 10:34:57;;;;;;;23.92;9.70;;;11.70;99.90;;;;;;6275226;22;19996;-73
2024/02/10 10:37:27;;;;;;;25.38;9.57;;;11.70;99.90;;;;;;6275333;22;20441;-73
2024/02/10 10:39:55;;;;;;;26.02;10.27;;;11.70;99.90;;;;;;6275580;22;20000;-73
2024/02/10 10:42:23;;;;;;;25.25;10.40;;;11.70;99.90;;;;;;6275699;22;20089;-72
2024/02/10 10:44:52;;;;;;;22.92;10.75;;;11.70;99.90;;;;;;6275475;22;20034;-73
2024/02/10 10:51:04;;;;;;;30.08;12.20;;;11.80;99.90;;;;;;6249640;22;20165;-73
2024/02/10 10:53:30;;;;;;;;;;;11.80;99.90;;;;;;6212336;23;20016;-73
2024/02/10 11:00:09;;;;;;;;;;;;;;;;;;;;;
2024/02/10 11:02:50;;;;;;;36.20;13.13;;;11.80;99.90;;;;;;6193332;23;20067;-73
2024/02/10 11:15:09;;;;;;;28.80;11.25;;;11.90;99.90;;;;;;6122475;23;20077;-74
2024/02/10 11:17:36;;;;;;;32.50;11.63;;;11.90;99.90;;;;;;6123186;23;20010;-73
2024/02/10 11:20:06;;;;;;;25.77;10.88;;;11.90;99.90;;;;;;6192448;23;20061;-74
2024/02/10 11:22:44;;;;;;;30.67;11.02;;;11.90;99.90;;;;;;6187068;23;20009;-74
2024/02/10 11:25:11;;;;;;;23.75;9.50;;;11.90;99.90;;;;;;6228941;23;20338;-74
2024/02/10 11:27:42;;;;;;;27.40;9.35;;;11.90;99.90;;;;;;6245200;22;20119;-74
2024/02/10 11:30:08;;;;;;;27.75;9.02;;;12.00;99.90;;;;;;6245077;22;20008;-74
2024/02/10 11:32:34;;;;;;;22.50;8.45;;;12.10;99.90;;;;;;6244688;22;20091;-73
2024/02/10 11:35:00;;;;;;;26.30;9.27;;;12.10;99.90;;;;;;6244919;22;19997;-74
2024/02/10 11:37:27;;;;;;;22.92;7.78;;;12.20;99.90;;;;;;6244968;22;20373;-74
2024/02/10 11:39:56;;;;;;;29.08;8.20;;;12.20;99.90;;;;;;6245000;23;20033;-74
2024/02/10 11:42:23;;;;;;;26.58;9.00;;;12.20;99.90;;;;;;6244692;22;20517;-74
2024/02/10 11:44:49;;;;;;;26.77;9.82;;;12.20;99.90;;;;;;6245171;23;20046;-74
2024/02/10 11:47:15;;;;;;;23.92;9.13;;;12.20;99.90;;;;;;6244400;22;20005;-74
2024/02/10 11:49:43;;;;;;;29.17;9.75;;;12.20;99.90;;;;;;6242969;23;20026;-73
2024/02/10 11:52:09;;;;;;;35.13;11.73;;;12.20;99.90;;;;;;6245059;22;20423;-75
2024/02/10 11:54:38;;;;;;;27.45;10.95;;;12.20;99.90;;;;;;6241965;22;20433;-74
2024/02/10 11:57:07;;;;;;;31.75;12.15;;;12.20;99.90;;;;;;6243114;22;20011;-73
2024/02/10 11:59:37;;;;;;;30.75;13.63;;;12.20;99.90;;;;;;6245892;23;19996;-73
2024/02/10 12:02:05;;;;;;;36.40;14.88;;;12.20;99.90;;;;;;6246622;22;20008;-74
2024/02/10 12:04:34;;;;;;;36.05;14.98;;;12.20;99.90;;;;;;6246827;22;20016;-74
2024/02/10 12:07:01;;;;;;;45.75;13.82;;;12.20;99.90;;;;;;6246594;22;20434;-74
2024/02/10 12:09:27;;;;;;;35.00;14.00;;;12.20;99.90;;;;;;6246625;22;20004;-74
2024/02/10 12:12:00;;;;;;;30.98;14.70;;;12.20;99.90;;;;;;6246346;22;20437;-74
2024/02/10 12:14:28;;;;;;;26.98;12.35;;;12.20;99.90;;;;;;6246402;22;20007;-73
2024/02/10 12:17:05;;;;;;;37.40;12.32;;;12.20;99.90;;;;;;6247092;22;20454;-74
2024/02/10 12:19:52;;;;;;;31.35;11.65;;;12.20;99.90;;;;;;6243070;22;20008;-74
2024/02/10 12:22:19;;;;;;;28.90;10.93;;;12.20;99.90;;;;;;6243564;22;20008;-74
2024/02/10 12:24:47;;;;;;;30.20;10.95;;;12.20;99.90;;;;;;6245189;23;19996;-74
2024/02/10 12:41:02;;;;;;;30.25;10.82;;;12.20;99.90;;;;;;6009806;23;20406;-75
2024/02/10 12:44:35;;;;;;;28.60;11.30;;;12.30;99.90;;;;;;6036841;23;20303;-74
2024/02/10 12:47:54;;;;;;;30.20;11.13;;;12.30;99.90;;;;;;5955971;24;20008;-74
2024/02/10 12:50:28;;;;;;;28.88;12.07;;;12.30;99.90;;;;;;5951652;24;20099;-74
2024/02/10 12:52:55;;;;;;;31.85;12.00;;;12.30;99.90;;;;;;5977991;23;20017;-74
2024/02/10 12:55:21;;;;;;;33.45;14.00;;;12.30;99.90;;;;;;6157168;23;20012;-74
2024/02/10 12:57:51;;;;;;;31.75;14.20;;;12.30;99.90;;;;;;6246034;23;20334;-74
2024/02/10 13:00:22;;;;;;;38.97;14.95;;;12.30;99.90;;;;;;6245787;23;20326;-74
2024/02/10 13:02:51;;;;;;;39.00;14.35;;;12.30;99.90;;;;;;6245588;23;20004;-73
2024/02/10 13:05:20;;;;;;;36.38;15.00;;;12.30;99.90;;;;;;6245853;23;20000;-74
2024/02/10 13:07:49;;;;;;;43.97;14.60;;;12.30;99.90;;;;;;6245419;23;20054;-74
2024/02/10 13:10:19;;;;;;;40.45;14.75;;;12.30;99.90;;;;;;6245127;23;20333;-74
2024/02/10 13:12:53;;;;;;;33.47;14.13;;;12.30;99.90;;;;;;6245816;23;20473;-74
2024/02/10 13:15:20;;;;;;;30.48;12.65;;;12.30;99.90;;;;;;6245170;23;20054;-72
2024/02/10 13:17:52;;;;;;;40.58;12.77;;;12.30;99.90;;;;;;6245520;23;20007;-74
2024/02/10 13:20:19;;;;;;;;;;;12.30;99.90;;;;;;6246247;23;19996;-74
2024/02/10 13:22:47;;;;;;;35.95;9.77;;;12.30;99.90;;;;;;6245517;23;20222;-73
2024/02/10 13:25:16;;;;;;;38.97;9.82;;;12.40;99.90;;;;;;6242794;23;20008;-73
2024/02/10 13:27:45;;;;;;;46.28;11.15;;;12.40;99.90;;;;;;6240438;23;20434;-75
2024/02/10 13:30:13;;;;;;;30.60;9.90;;;12.40;99.90;;;;;;6240283;23;20375;-74
2024/02/10 13:32:40;;;;;;;35.97;12.23;;;12.40;99.90;;;;;;6243043;23;20091;-73
2024/02/10 13:35:08;;;;;;;46.15;14.30;;;12.40;99.90;;;;;;6243508;23;20071;-73
2024/02/10 14:20:19;;;;;;;36.22;11.07;;;12.50;99.90;;;;;;6121911;23;20069;-74
2024/02/10 14:24:43;;;;;;;34.60;11.50;;;12.50;99.90;;;;;;6148855;23;20089;-75
2024/02/10 14:26:41;;;;;;;39.10;10.88;;;12.50;99.90;;;;;;6023735;23;20035;-75
2024/02/10 14:29:19;;;;;;;40.75;11.70;;;12.50;99.90;;;;;;6127830;23;20328;-75
2024/02/10 14:31:50;;;;;;;35.35;10.77;;;12.50;99.90;;;;;;6207772;23;20366;-74
2024/02/10 14:34:35;;;;;;;35.95;11.25;;;12.50;99.90;;;;;;6244846;23;19996;-75
2024/02/10 14:37:19;;;;;;;36.58;12.20;;;12.50;99.90;;;;;;6245083;23;20341;-75
2024/02/10 14:39:45;;;;;;;41.25;11.35;;;12.50;99.90;;;;;;6244898;23;20377;-75
2024/02/10 14:42:11;;;;;;;40.03;12.38;;;12.50;99.90;;;;;;6244779;23;20000;-74
2024/02/10 14:44:36;;;;;;;41.85;11.88;;;12.50;99.90;;;;;;6244538;23;20018;-75
2024/02/10 14:47:02;;;;;;;36.75;12.18;;;12.40;99.90;;;;;;6244965;23;20061;-74
2024/02/10 14:49:29;;;;;;;35.80;11.60;;;12.50;99.90;;;;;;6243948;22;20059;-75
2024/02/10 14:51:55;;;;;;;44.20;13.30;;;12.40;99.90;;;;;;6245022;22;20085;-74
2024/02/10 14:54:21;;;;;;;45.33;13.63;;;12.50;99.90;;;;;;6244432;23;20079;-74
2024/02/10 14:56:47;;;;;;;37.92;12.38;;;12.40;99.90;;;;;;6242913;23;20037;-74
2024/02/10 14:59:12;;;;;;;37.58;12.23;;;12.40;99.90;;;;;;6245015;22;20010;-75
2024/02/10 15:01:39;;;;;;;44.03;14.40;;;12.40;99.90;;;;;;6244881;22;20075;-75
2024/02/10 15:04:05;;;;;;;52.40;15.05;;;12.40;99.90;;;;;;6244660;22;20001;-74
2024/02/10 15:06:34;;;;;;;38.00;16.40;;;12.40;99.90;;;;;;6240728;22;20120;-74
2024/02/10 15:09:02;;;;;;;62.70;26.33;;;12.40;99.90;;;;;;6241557;22;20857;-74
2024/02/10 15:11:29;;;;;;;68.22;31.23;;;12.40;99.90;;;;;;6242526;22;20008;-74
2024/02/10 15:13:55;;;;;;;46.30;20.20;;;12.40;99.90;;;;;;6243983;22;20004;-74
2024/02/10 15:16:22;;;;;;;43.22;19.15;;;12.40;99.90;;;;;;6244285;22;20008;-75
2024/02/10 15:18:51;;;;;;;49.95;19.15;;;12.40;99.90;;;;;;6245141;22;20004;-75
2024/02/10 15:21:21;;;;;;;41.40;18.92;;;12.30;99.90;;;;;;6244951;22;20000;-75
2024/02/10 15:23:47;;;;;;;38.35;15.80;;;12.30;99.90;;;;;;6244842;22;20004;-75
2024/02/10 15:26:16;;;;;;;37.88;15.20;;;12.30;99.90;;;;;;6245502;22;20296;-75
2024/02/10 15:28:44;;;;;;;39.10;16.98;;;12.30;99.90;;;;;;6245868;22;20303;-77
2024/02/10 15:31:11;;;;;;;32.85;13.07;;;12.30;99.90;;;;;;6245659;23;20019;-75
2024/02/10 15:33:39;;;;;;;35.83;12.15;;;12.30;99.90;;;;;;6244907;22;20016;-75
2024/02/10 15:51:35;;;;;;;45.70;11.30;;;12.20;99.90;;;;;;5942872;24;20025;-75
2024/02/10 15:54:16;;;;;;;45.83;13.35;;;12.20;99.90;;;;;;5897952;24;20426;-74
2024/02/10 16:00:13;;;;;;;46.45;12.48;;;12.20;99.90;;;;;;5866476;24;20522;-74
2024/02/10 16:02:39;;;;;;;43.88;11.52;;;12.20;99.90;;;;;;5867139;24;20040;-74
2024/02/10 16:05:08;;;;;;;46.72;11.40;;;12.10;99.90;;;;;;6050092;23;20227;-74
2024/02/10 16:07:37;;;;;;;53.55;12.90;;;12.20;99.90;;;;;;6203579;22;20023;-74
2024/02/10 16:10:04;;;;;;;53.63;11.02;;;12.20;99.90;;;;;;6276334;22;20103;-74